createdAt,value
2023-03-20T00:01:37.238Z,77.30
2023-03-20T00:06:40.051Z,77.41
2023-03-20T00:11:49.031Z,77.79
2023-03-20T00:16:52.716Z,77.67
2023-03-20T00:21:57.584Z,77.89
2023-03-20T00:27:02.688Z,78.36
2023-03-20T00:32:09.625Z,78.69
2023-03-20T00:37:12.653Z,78.92
2023-03-20T00:42:22.151Z,78.59
2023-03-20T00:47:27.040Z,78.71
2023-03-20T00:52:30.447Z,79.62
2023-03-20T00:57:40.328Z,80.31
2023-03-20T01:02:43.172Z,79.88
2023-03-20T01:07:46.623Z,80.19
2023-03-20T01:12:50.833Z,79.90
2023-03-20T01:17:53.955Z,79.89
2023-03-20T01:22:57.054Z,79.60
2023-03-20T01:28:01.607Z,79.61
2023-03-20T01:33:14.428Z,79.31
2023-03-20T01:38:21.629Z,78.59
2023-03-20T01:43:28.841Z,78.23
2023-03-20T01:48:57.084Z,78.38
2023-03-20T01:54:06.012Z,78.52
2023-03-20T01:59:17.631Z,80.12
2023-03-20T02:04:27.110Z,81.43
2023-03-20T02:09:36.384Z,82.17
2023-03-20T02:14:48.027Z,81.48
2023-03-20T02:20:10.042Z,81.13
2023-03-20T02:25:48.094Z,80.36
2023-03-20T02:31:09.162Z,81.68
2023-03-20T02:36:51.286Z,81.51
2023-03-20T02:42:03.446Z,81.48
2023-03-20T02:47:12.651Z,81.85
2023-03-20T02:52:21.168Z,81.23
2023-03-20T02:57:39.867Z,82.20
2023-03-20T03:02:51.811Z,81.79
2023-03-20T03:07:59.766Z,81.99
2023-03-20T03:13:07.760Z,83.69
2023-03-20T03:18:15.341Z,83.54
2023-03-20T03:23:28.550Z,84.58
2023-03-20T03:28:37.541Z,84.62
2023-03-20T03:33:42.134Z,82.91
2023-03-20T03:38:52.228Z,81.66
2023-03-20T03:44:06.766Z,83.19
2023-03-20T03:49:14.766Z,83.06
2023-03-20T03:54:23.560Z,81.96
2023-03-20T03:59:52.075Z,81.41
2023-03-20T04:04:56.175Z,82.48
2023-03-20T04:09:58.972Z,82.97
2023-03-20T04:15:03.670Z,81.79
2023-03-20T04:20:10.698Z,80.80
2023-03-20T04:25:18.757Z,79.57
2023-03-20T04:30:24.057Z,80.41
2023-03-20T04:35:51.706Z,79.90
2023-03-20T04:40:54.475Z,79.95
2023-03-20T04:45:58.788Z,80.29
2023-03-20T04:51:01.855Z,79.73
2023-03-20T04:56:16.899Z,80.04
2023-03-20T05:01:21.314Z,80.01
2023-03-20T05:06:24.166Z,79.91
2023-03-20T05:11:27.383Z,78.87
2023-03-20T05:16:47.305Z,78.69
2023-03-20T05:21:58.494Z,78.01
2023-03-20T05:27:08.043Z,78.04
2023-03-20T05:32:27.039Z,78.12
2023-03-20T05:37:55.818Z,77.72
2023-03-20T05:43:06.847Z,77.27
2023-03-20T05:48:26.512Z,78.38
2023-03-20T05:53:54.763Z,77.33
2023-03-20T05:59:15.497Z,77.76
2023-03-20T06:04:48.581Z,77.49
2023-03-20T06:09:57.786Z,78.17
2023-03-20T06:15:01.946Z,77.91
2023-03-20T06:20:11.314Z,77.78
2023-03-20T06:25:14.635Z,76.25
2023-03-20T06:30:20.248Z,76.12
2023-03-20T06:35:24.835Z,76.57
2023-03-20T06:40:28.338Z,75.62
2023-03-20T06:45:32.090Z,75.24
2023-03-20T06:50:38.776Z,74.15
2023-03-20T06:55:42.303Z,75.32
2023-03-20T07:00:46.700Z,74.97
2023-03-20T07:05:51.318Z,75.00
2023-03-20T07:10:55.587Z,74.88
2023-03-20T07:16:04.422Z,75.44
2023-03-20T07:21:20.471Z,75.46
2023-03-20T07:26:23.264Z,75.06
2023-03-20T07:31:28.891Z,75.22
2023-03-20T07:36:49.651Z,75.16
2023-03-20T07:41:55.990Z,74.71
2023-03-20T07:47:12.758Z,73.85
2023-03-20T07:52:17.194Z,74.23
2023-03-20T07:57:20.363Z,72.13
2023-03-20T08:02:23.303Z,72.56
2023-03-20T08:07:29.550Z,72.62
2023-03-20T08:12:32.398Z,71.10
2023-03-20T08:17:35.189Z,70.81
2023-03-20T08:22:39.508Z,70.25
2023-03-20T08:27:42.293Z,68.30
2023-03-20T08:32:45.431Z,67.43
2023-03-20T08:37:49.543Z,67.38
2023-03-20T08:42:52.340Z,65.40
2023-03-20T08:47:55.756Z,67.62
2023-03-20T08:52:59.912Z,66.84
2023-03-20T08:58:02.864Z,67.32
2023-03-20T09:03:05.855Z,65.23
2023-03-20T09:08:10.058Z,64.82
2023-03-20T09:13:26.333Z,64.97
2023-03-20T09:18:30.192Z,62.70
2023-03-20T09:23:34.388Z,63.06
2023-03-20T09:28:37.180Z,64.33
2023-03-20T09:33:40.029Z,63.31
2023-03-20T09:38:44.158Z,62.15
2023-03-20T09:43:58.312Z,63.45
2023-03-20T09:49:13.499Z,62.70
2023-03-20T09:54:25.612Z,61.55
2023-03-20T09:59:29.241Z,62.11
2023-03-20T10:04:32.111Z,61.64
2023-03-20T10:09:36.293Z,60.58
2023-03-20T10:14:48.476Z,62.17
2023-03-20T10:19:54.591Z,59.94
2023-03-20T10:25:08.691Z,61.05
2023-03-20T10:30:32.487Z,60.16
2023-03-20T10:35:40.778Z,59.84
2023-03-20T10:40:45.954Z,61.23
2023-03-20T10:45:51.801Z,59.79
2023-03-20T10:50:57.112Z,60.21
2023-03-20T10:56:06.357Z,59.29
2023-03-20T11:01:09.307Z,57.96
2023-03-20T11:06:19.541Z,58.00
2023-03-20T11:11:29.295Z,58.85
2023-03-20T11:16:36.662Z,58.72
2023-03-20T11:21:47.371Z,56.71
2023-03-20T11:26:52.847Z,56.33
2023-03-20T11:32:04.151Z,55.52
2023-03-20T11:37:22.076Z,53.40
2023-03-20T11:42:28.601Z,53.42
2023-03-20T11:47:34.824Z,54.05
2023-03-20T11:52:40.894Z,53.06
2023-03-20T11:57:47.360Z,53.76
2023-03-20T12:02:51.024Z,51.33
2023-03-20T12:07:58.182Z,51.25
2023-03-20T12:13:07.756Z,53.01
2023-03-20T12:18:15.638Z,51.44
2023-03-20T12:23:25.137Z,52.42
2023-03-20T12:28:37.228Z,52.11
2023-03-20T12:33:46.914Z,50.52
2023-03-20T12:38:49.661Z,50.84
2023-03-20T12:44:21.763Z,52.21
2023-03-20T12:49:35.449Z,51.83
2023-03-20T12:54:52.186Z,52.27
2023-03-20T13:00:13.663Z,50.94
2023-03-20T13:05:32.088Z,50.69
2023-03-20T13:10:39.052Z,52.74
2023-03-20T13:15:59.203Z,52.12
2023-03-20T13:21:07.401Z,52.92
2023-03-20T13:26:22.765Z,54.69
2023-03-20T13:31:37.875Z,54.62
2023-03-20T13:36:55.447Z,54.53
2023-03-20T13:42:00.518Z,54.43
2023-03-20T13:47:11.435Z,53.12
2023-03-20T13:52:18.093Z,53.09
2023-03-20T13:57:29.925Z,53.10
2023-03-20T14:02:51.767Z,51.58
2023-03-20T14:07:58.162Z,52.04
2023-03-20T14:13:02.480Z,50.84
2023-03-20T14:18:09.390Z,51.53
2023-03-20T14:23:20.553Z,52.91
2023-03-20T14:28:28.366Z,54.21
2023-03-20T14:33:32.705Z,53.85
2023-03-20T14:38:41.065Z,54.83
2023-03-20T14:43:58.926Z,54.23
2023-03-20T14:49:19.447Z,55.26
2023-03-20T14:54:27.863Z,54.64
2023-03-20T14:59:33.323Z,55.75
2023-03-20T15:04:40.531Z,55.21
2023-03-20T15:09:46.288Z,55.69
2023-03-20T15:14:56.347Z,57.68
2023-03-20T15:20:08.594Z,56.81
2023-03-20T15:25:18.514Z,57.45
2023-03-20T15:30:23.113Z,57.96
2023-03-20T15:35:28.151Z,58.52
2023-03-20T15:40:49.360Z,58.45
2023-03-20T15:46:14.195Z,59.42
2023-03-20T15:51:23.837Z,60.07
2023-03-20T15:56:28.150Z,61.33
2023-03-20T16:01:33.216Z,61.26
2023-03-20T16:06:47.216Z,60.66
2023-03-20T16:11:58.061Z,60.80
2023-03-20T16:17:03.186Z,59.67
2023-03-20T16:22:18.344Z,60.23
2023-03-20T16:27:27.577Z,59.67
2023-03-20T16:32:38.391Z,59.24
2023-03-20T16:37:49.564Z,60.28
2023-03-20T16:42:54.902Z,61.21
2023-03-20T16:48:22.554Z,60.17
2023-03-20T16:53:30.979Z,61.21
2023-03-20T16:58:39.875Z,61.22
2023-03-20T17:03:49.163Z,61.39
2023-03-20T17:08:55.469Z,61.70
2023-03-20T17:13:58.256Z,62.45
2023-03-20T17:19:02.665Z,63.61
2023-03-20T17:24:07.361Z,62.81
2023-03-20T17:29:11.819Z,63.36
2023-03-20T17:34:15.562Z,63.39
2023-03-20T17:39:21.497Z,63.57
2023-03-20T17:44:24.790Z,64.49
2023-03-20T17:49:28.334Z,64.06
2023-03-20T17:54:32.593Z,66.15
2023-03-20T17:59:36.355Z,65.21
2023-03-20T18:04:39.158Z,66.30
2023-03-20T18:09:44.542Z,66.12
2023-03-20T18:14:47.788Z,67.05
2023-03-20T18:19:50.546Z,66.53
2023-03-20T18:24:54.696Z,67.26
2023-03-20T18:29:57.466Z,67.61
2023-03-20T18:35:00.265Z,69.37
2023-03-20T18:40:07.643Z,71.98
2023-03-20T18:45:11.743Z,73.52
2023-03-20T18:50:24.443Z,73.20
2023-03-20T18:55:29.135Z,72.84
2023-03-20T19:00:37.896Z,71.49
2023-03-20T19:05:41.091Z,71.61
2023-03-20T19:10:45.959Z,70.95
2023-03-20T19:15:48.884Z,73.13
2023-03-20T19:20:53.033Z,72.66
2023-03-20T19:25:57.258Z,74.83
2023-03-20T19:31:00.889Z,76.79
2023-03-20T19:36:04.950Z,77.27
2023-03-20T19:41:09.515Z,78.12
2023-03-20T19:46:28.491Z,80.09
2023-03-20T19:51:38.972Z,78.25
2023-03-20T19:56:43.181Z,78.46
2023-03-20T20:01:47.019Z,78.94
2023-03-20T20:06:50.048Z,77.62
2023-03-20T20:11:54.303Z,77.85
2023-03-20T20:16:57.180Z,78.65
2023-03-20T20:22:20.308Z,77.86
2023-03-20T20:27:23.951Z,78.75
2023-03-20T20:32:28.548Z,79.37
2023-03-20T20:43:01.400Z,79.29
2023-03-20T20:48:07.292Z,79.71
2023-03-20T20:53:10.223Z,81.05
2023-03-20T20:58:14.341Z,80.82
2023-03-20T21:03:17.402Z,79.63
2023-03-20T21:08:20.223Z,78.70
2023-03-20T21:13:24.520Z,78.25
2023-03-20T21:18:27.473Z,77.99
2023-03-20T21:23:30.419Z,77.75
2023-03-20T21:28:34.569Z,78.65
2023-03-20T21:33:38.744Z,78.41
2023-03-20T21:44:05.682Z,78.94
2023-03-20T21:55:14.988Z,77.89
2023-03-20T22:00:44.042Z,77.47
2023-03-20T22:05:58.644Z,76.06
2023-03-20T22:17:08.781Z,75.91
2023-03-20T22:27:43.628Z,73.67
2023-03-20T22:38:41.321Z,74.72
2023-03-20T22:48:33.278Z,75.82
2023-03-20T22:53:36.499Z,75.59
2023-03-20T22:58:39.328Z,75.10
2023-03-20T23:03:43.478Z,73.89
2023-03-20T23:08:52.286Z,73.30
2023-03-20T23:13:57.218Z,72.27
2023-03-20T23:19:01.376Z,72.38
2023-03-20T23:24:04.462Z,71.92
2023-03-20T23:29:07.688Z,71.36
2023-03-20T23:34:11.911Z,71.49
2023-03-20T23:39:15.286Z,71.10
2023-03-20T23:44:18.113Z,71.12
2023-03-20T23:49:22.511Z,71.51
2023-03-20T23:54:25.301Z,71.65
2023-03-20T23:59:29.808Z,73.30
